createdAt,value
2017-04-02T00:00:15.296Z,17.75
2017-04-02T00:01:28.543Z,17.75
2017-04-02T00:02:41.751Z,17.84
2017-04-02T00:03:54.992Z,17.79
2017-04-02T00:05:07.717Z,17.86
2017-04-02T00:06:20.939Z,17.82
2017-04-02T00:07:34.201Z,17.82
2017-04-02T00:08:47.453Z,17.79
2017-04-02T00:10:00.671Z,17.82
2017-04-02T00:11:13.917Z,17.9
2017-04-02T00:12:27.147Z,17.82
2017-04-02T00:13:40.361Z,17.89
2017-04-02T00:14:53.589Z,17.96
2017-04-02T00:16:06.822Z,17.96
2017-04-02T00:17:20.057Z,17.97
2017-04-02T00:18:32.996Z,17.93
2017-04-02T00:19:46.207Z,17.92
2017-04-02T00:20:58.901Z,17.97
2017-04-02T00:22:12.143Z,17.93
2017-04-02T00:23:24.869Z,17.93
2017-04-02T00:24:38.120Z,17.92
2017-04-02T00:25:51.326Z,17.99
2017-04-02T00:27:04.554Z,17.97
2017-04-02T00:28:17.771Z,17.97
2017-04-02T00:29:30.000Z,17.89
2017-04-02T00:30:43.205Z,17.87
2017-04-02T00:31:56.473Z,17.86
2017-04-02T00:33:09.691Z,17.84
2017-04-02T00:34:22.400Z,17.86
2017-04-02T00:35:35.612Z,17.84
2017-04-02T00:36:48.341Z,17.86
2017-04-02T00:38:01.588Z,17.89
2017-04-02T00:39:14.330Z,17.7
2017-04-02T00:40:27.557Z,17.25
2017-04-02T00:41:40.809Z,16.73
2017-04-02T00:42:54.043Z,16.48
2017-04-02T00:44:07.332Z,16.24
2017-04-02T00:45:20.566Z,16.05
2017-04-02T00:46:33.767Z,16.08
2017-04-02T00:47:46.999Z,16.08
2017-04-02T00:49:00.223Z,16.02
2017-04-02T00:50:12.962Z,16.09
2017-04-02T00:51:26.222Z,16.04
2017-04-02T00:52:38.923Z,16
2017-04-02T00:53:51.636Z,16.05
2017-04-02T00:55:04.911Z,16.15
2017-04-02T00:56:18.197Z,16.21
2017-04-02T00:57:31.424Z,16.17
2017-04-02T00:58:44.669Z,16.15
2017-04-02T00:59:57.363Z,16.2
2017-04-02T01:01:10.612Z,16.12
2017-04-02T01:02:23.831Z,16.25
2017-04-02T01:03:37.045Z,16.38
2017-04-02T01:04:50.259Z,16.24
2017-04-02T01:06:02.997Z,16.34
2017-04-02T01:07:15.713Z,16.33
2017-04-02T01:08:28.946Z,16.33
2017-04-02T01:09:42.217Z,16.24
2017-04-02T01:10:55.445Z,16.31
2017-04-02T01:12:08.708Z,16.31
2017-04-02T01:13:21.930Z,16.38
2017-04-02T01:14:35.133Z,16.25
2017-04-02T01:15:48.376Z,16.27
2017-04-02T01:17:01.593Z,16.39
2017-04-02T01:18:14.823Z,16.43
2017-04-02T01:19:28.087Z,16.48
2017-04-02T01:20:40.811Z,16.52
2017-04-02T01:21:54.066Z,16.43
2017-04-02T01:23:06.788Z,16.45
2017-04-02T01:24:19.981Z,16.43
2017-04-02T01:25:33.197Z,16.34
2017-04-02T01:26:45.897Z,16.3
2017-04-02T01:27:59.172Z,16.27
2017-04-02T01:29:11.368Z,16.33
2017-04-02T01:30:24.637Z,16.23
2017-04-02T01:31:37.876Z,16.33
2017-04-02T01:32:50.611Z,16.34
2017-04-02T01:34:03.332Z,16.34
2017-04-02T01:35:16.570Z,16.42
2017-04-02T01:36:29.788Z,16.42
2017-04-02T01:37:43.037Z,16.46
2017-04-02T01:38:56.245Z,16.43
2017-04-02T01:40:08.451Z,16.39
2017-04-02T01:41:21.759Z,16.45
2017-04-02T01:42:33.965Z,16.52
2017-04-02T01:43:47.197Z,16.46
2017-04-02T01:44:59.381Z,16.49
2017-04-02T01:46:12.599Z,16.46
2017-04-02T01:47:25.812Z,16.49
2017-04-02T01:48:39.042Z,16.49
2017-04-02T01:49:52.269Z,16.49
2017-04-02T01:51:04.984Z,16.46
2017-04-02T01:52:18.215Z,16.49
2017-04-02T01:53:31.442Z,16.48
2017-04-02T01:54:44.672Z,16.46
2017-04-02T01:55:57.904Z,16.48
2017-04-02T01:57:10.594Z,16.43
2017-04-02T01:58:23.804Z,16.38
2017-04-02T01:59:37.055Z,16.39
2017-04-02T02:00:50.313Z,16.42
2017-04-02T02:02:03.550Z,16.34
2017-04-02T02:03:16.289Z,16.3
2017-04-02T02:04:29.504Z,16.38
2017-04-02T02:05:42.713Z,16.48
2017-04-02T02:06:55.986Z,16.35
2017-04-02T02:08:08.724Z,16.45
2017-04-02T02:09:21.962Z,16.41
2017-04-02T02:10:35.166Z,16.39
2017-04-02T02:11:48.423Z,16.42
2017-04-02T02:13:01.640Z,16.31
2017-04-02T02:14:14.896Z,16.5
2017-04-02T02:15:28.110Z,16.5
2017-04-02T02:16:41.334Z,16.49
2017-04-02T02:17:54.547Z,16.5
2017-04-02T02:19:07.736Z,16.58
2017-04-02T02:20:20.461Z,16.5
2017-04-02T02:21:33.698Z,16.52
2017-04-02T02:22:46.899Z,16.52
2017-04-02T02:24:00.145Z,16.48
2017-04-02T02:25:13.374Z,16.46
2017-04-02T02:26:26.632Z,16.46
2017-04-02T02:27:39.877Z,16.5
2017-04-02T02:28:53.147Z,16.43
2017-04-02T02:30:06.376Z,16.5
2017-04-02T02:31:19.597Z,16.48
2017-04-02T02:32:32.329Z,16.49
2017-04-02T02:33:45.553Z,16.56
2017-04-02T02:34:58.792Z,16.61
2017-04-02T02:36:11.525Z,16.56
2017-04-02T02:37:24.742Z,16.63
2017-04-02T02:38:37.990Z,16.61
2017-04-02T02:39:51.210Z,16.6
2017-04-02T02:41:04.433Z,16.63
2017-04-02T02:42:17.622Z,16.61
2017-04-02T02:43:30.888Z,16.61
2017-04-02T02:44:44.114Z,16.64
2017-04-02T02:45:56.845Z,16.79
2017-04-02T02:47:10.069Z,16.73
2017-04-02T02:48:23.371Z,16.73
2017-04-02T02:49:36.603Z,16.78
2017-04-02T02:50:49.342Z,16.7
2017-04-02T02:52:02.576Z,16.79
2017-04-02T02:53:15.303Z,16.75
2017-04-02T02:54:28.540Z,16.79
2017-04-02T02:55:41.743Z,16.75
2017-04-02T02:56:54.968Z,16.81
2017-04-02T02:58:08.203Z,16.7
2017-04-02T02:59:21.430Z,16.7
2017-04-02T03:00:34.669Z,16.7
2017-04-02T03:01:47.388Z,16.76
2017-04-02T03:03:00.627Z,16.73
2017-04-02T03:04:13.876Z,16.88
2017-04-02T03:05:27.134Z,16.82
2017-04-02T03:06:40.362Z,16.79
2017-04-02T03:07:53.592Z,16.78
2017-04-02T03:09:06.317Z,16.82
2017-04-02T03:10:18.994Z,16.86
2017-04-02T03:11:32.214Z,16.83
2017-04-02T03:12:44.907Z,16.83
2017-04-02T03:13:58.123Z,16.85
2017-04-02T03:15:11.351Z,16.82
2017-04-02T03:16:24.565Z,16.83
2017-04-02T03:17:37.804Z,16.71
2017-04-02T03:18:51.031Z,16.75
2017-04-02T03:20:04.257Z,16.63
2017-04-02T03:21:17.520Z,16.49
2017-04-02T03:22:30.379Z,16.48
2017-04-02T03:23:43.607Z,16.34
2017-04-02T03:24:56.833Z,16.3
2017-04-02T03:26:09.600Z,16.23
2017-04-02T03:27:22.835Z,16.21
2017-04-02T03:28:36.100Z,16.21
2017-04-02T03:29:49.338Z,16.14
2017-04-02T03:31:02.093Z,16.14
2017-04-02T03:32:15.327Z,16.05
2017-04-02T03:33:28.585Z,16.11
2017-04-02T03:34:41.814Z,16.05
2017-04-02T03:35:54.535Z,16.02
2017-04-02T03:37:07.787Z,16.12
2017-04-02T03:38:21.059Z,16.11
2017-04-02T03:39:33.779Z,16.15
2017-04-02T03:40:46.986Z,16.2
2017-04-02T03:42:00.216Z,16.09
2017-04-02T03:43:12.925Z,16.08
2017-04-02T03:44:25.605Z,16.17
2017-04-02T03:45:38.339Z,16.11
2017-04-02T03:46:51.599Z,16.05
2017-04-02T03:48:04.842Z,16.11
2017-04-02T03:49:18.093Z,16.08
2017-04-02T03:50:31.402Z,16.05
2017-04-02T03:51:44.648Z,16.07
2017-04-02T03:52:57.908Z,16.12
2017-04-02T03:54:10.101Z,16.08
2017-04-02T03:55:23.338Z,16.08
2017-04-02T03:56:36.546Z,16.05
2017-04-02T03:57:49.774Z,16.05
2017-04-02T03:59:03.048Z,16.11
2017-04-02T04:00:16.259Z,16.14
2017-04-02T04:01:29.503Z,15.97
2017-04-02T04:02:42.751Z,16
2017-04-02T04:03:56.026Z,16.05
2017-04-02T04:05:09.257Z,16.08
2017-04-02T04:06:21.970Z,16.08
2017-04-02T04:07:35.198Z,16.08
2017-04-02T04:08:48.411Z,16.21
2017-04-02T04:10:01.149Z,16.07
2017-04-02T04:11:14.399Z,16.01
2017-04-02T04:12:27.098Z,16.04
2017-04-02T04:13:39.794Z,16.27
2017-04-02T04:14:53.018Z,16.2
2017-04-02T04:16:06.284Z,16.28
2017-04-02T04:17:19.543Z,16.15
2017-04-02T04:18:32.770Z,16.15
2017-04-02T04:19:46.006Z,16.2
2017-04-02T04:20:59.249Z,16.12
2017-04-02T04:22:12.485Z,16.2
2017-04-02T04:23:25.715Z,16.14
2017-04-02T04:24:38.910Z,16.25
2017-04-02T04:25:52.150Z,16.15
2017-04-02T04:27:05.416Z,16.17
2017-04-02T04:28:18.634Z,16.12
2017-04-02T04:29:31.845Z,16.27
2017-04-02T04:30:45.145Z,16.25
2017-04-02T04:31:58.410Z,16.23
2017-04-02T04:33:11.668Z,16.3
2017-04-02T04:34:24.398Z,16.33
2017-04-02T04:35:37.146Z,16.35
2017-04-02T04:36:49.869Z,16.33
2017-04-02T04:38:03.116Z,16.3
2017-04-02T04:39:16.409Z,16.3
2017-04-02T04:40:29.998Z,16.21
2017-04-02T04:41:43.373Z,16.2
2017-04-02T04:42:57.311Z,16.35
2017-04-02T04:44:11.252Z,16.33
2017-04-02T04:45:25.192Z,16.41
2017-04-02T04:46:38.571Z,16.34
2017-04-02T04:47:51.943Z,16.34
2017-04-02T04:49:05.915Z,16.31
2017-04-02T04:50:19.888Z,16.38
2017-04-02T04:51:33.283Z,16.34
2017-04-02T04:52:47.247Z,16.27
2017-04-02T04:54:01.173Z,16.27
2017-04-02T04:55:14.586Z,16.23
2017-04-02T04:56:27.934Z,16.28
2017-04-02T04:57:40.754Z,16.25
2017-04-02T04:58:54.112Z,16.31
2017-04-02T05:00:08.109Z,16.25
2017-04-02T05:01:22.036Z,16.25
2017-04-02T05:02:35.370Z,16.23
2017-04-02T05:03:49.337Z,16.27
2017-04-02T05:05:03.315Z,16.3
2017-04-02T05:06:16.688Z,16.28
2017-04-02T05:07:30.597Z,16.3
2017-04-02T05:08:44.569Z,16.3
2017-04-02T05:09:58.497Z,16.23
2017-04-02T05:11:12.399Z,16.12
2017-04-02T05:12:26.313Z,16.15
2017-04-02T05:13:40.210Z,16.11
2017-04-02T05:14:54.110Z,16.09
2017-04-02T05:16:08.031Z,16.01
2017-04-02T05:17:21.966Z,16.09
2017-04-02T05:18:35.887Z,16.01
2017-04-02T05:19:49.818Z,16.12
2017-04-02T05:21:02.615Z,16.08
2017-04-02T05:22:16.549Z,16.01
2017-04-02T05:23:30.138Z,16.12
2017-04-02T05:24:44.153Z,15.97
2017-04-02T05:25:58.089Z,15.97
2017-04-02T05:27:12.060Z,16.04
2017-04-02T05:28:26.001Z,16.07
2017-04-02T05:29:40.006Z,16.05
2017-04-02T05:30:53.383Z,16.11
2017-04-02T05:32:07.300Z,15.94
2017-04-02T05:33:21.245Z,15.89
2017-04-02T05:34:35.201Z,15.93
2017-04-02T05:35:49.138Z,15.96
2017-04-02T05:37:03.070Z,15.92
2017-04-02T05:38:16.453Z,16
2017-04-02T05:39:29.839Z,15.9
2017-04-02T05:40:43.783Z,15.87
2017-04-02T05:41:57.145Z,15.87
2017-04-02T05:43:11.082Z,15.8
2017-04-02T05:44:24.993Z,15.86
2017-04-02T05:45:38.928Z,15.86
2017-04-02T05:46:52.829Z,15.74
2017-04-02T05:48:06.761Z,15.75
2017-04-02T05:49:19.036Z,15.78
2017-04-02T05:50:32.960Z,15.76
2017-04-02T05:51:46.901Z,15.78
2017-04-02T05:53:00.855Z,15.75
2017-04-02T05:54:14.756Z,15.76
2017-04-02T05:55:28.707Z,15.84
2017-04-02T05:56:42.073Z,15.84
2017-04-02T05:57:55.437Z,15.78
2017-04-02T05:59:09.350Z,15.75
2017-04-02T06:00:23.250Z,15.84
2017-04-02T06:01:37.175Z,15.84
2017-04-02T06:02:50.530Z,15.75
2017-04-02T06:04:04.446Z,15.84
2017-04-02T06:05:18.362Z,15.87
2017-04-02T06:06:32.302Z,15.84
2017-04-02T06:07:46.244Z,15.86
2017-04-02T06:09:00.163Z,15.72
2017-04-02T06:10:14.125Z,15.75
2017-04-02T06:11:28.081Z,15.72
2017-04-02T06:12:41.464Z,15.78
2017-04-02T06:13:55.445Z,15.78
2017-04-02T06:15:08.797Z,15.76
2017-04-02T06:16:22.179Z,15.75
2017-04-02T06:17:36.160Z,15.75
2017-04-02T06:18:50.112Z,15.83
2017-04-02T06:20:04.022Z,15.92
2017-04-02T06:21:17.945Z,15.94
2017-04-02T06:22:31.905Z,16.01
2017-04-02T06:23:45.287Z,16.02
2017-04-02T06:24:59.219Z,16.05
2017-04-02T06:26:12.587Z,16.05
2017-04-02T06:27:26.518Z,16.08
2017-04-02T06:28:40.456Z,16.08
2017-04-02T06:29:54.397Z,16.02
2017-04-02T06:31:08.306Z,16.07
2017-04-02T06:32:22.258Z,15.94
2017-04-02T06:33:35.646Z,15.93
2017-04-02T06:34:49.572Z,15.92
2017-04-02T06:36:03.515Z,15.86
2017-04-02T06:37:17.433Z,15.93
2017-04-02T06:38:31.431Z,15.92
2017-04-02T06:39:45.369Z,15.94
2017-04-02T06:40:58.750Z,15.97
2017-04-02T06:42:12.665Z,15.94
2017-04-02T06:43:26.618Z,15.94
2017-04-02T06:44:39.961Z,15.94
2017-04-02T06:45:53.947Z,15.96
2017-04-02T06:47:07.907Z,16
2017-04-02T06:48:21.835Z,16.07
2017-04-02T06:49:35.178Z,16.09
2017-04-02T06:50:49.165Z,16.08
2017-04-02T06:52:03.076Z,16.02
2017-04-02T06:53:15.325Z,15.97
2017-04-02T06:54:29.245Z,15.97
2017-04-02T06:55:43.175Z,16
2017-04-02T06:56:56.551Z,15.9
2017-04-02T06:58:09.932Z,15.96
2017-04-02T06:59:23.881Z,16.01
2017-04-02T07:00:37.796Z,16.07
2017-04-02T07:01:51.724Z,16.05
2017-04-02T07:03:05.653Z,16.07
2017-04-02T07:04:19.585Z,15.97
2017-04-02T07:05:33.519Z,16.09
2017-04-02T07:06:47.447Z,16.05
2017-04-02T07:08:00.836Z,16.04
2017-04-02T07:09:14.804Z,16.08
2017-04-02T07:10:28.166Z,16.04
2017-04-02T07:11:42.099Z,16.01
2017-04-02T07:12:56.026Z,16.04
2017-04-02T07:14:09.971Z,16.02
2017-04-02T07:15:23.987Z,16.17
2017-04-02T07:16:37.405Z,16.14
2017-04-02T07:17:51.319Z,16.21
2017-04-02T07:19:05.263Z,16.28
2017-04-02T07:20:18.062Z,16.41
2017-04-02T07:21:30.880Z,16.39
2017-04-02T07:22:44.828Z,16.33
2017-04-02T07:23:58.176Z,16.2
2017-04-02T07:25:11.547Z,16.2
2017-04-02T07:26:24.923Z,16.12
2017-04-02T07:27:38.833Z,16.17
2017-04-02T07:28:52.739Z,16.15
2017-04-02T07:30:06.697Z,16.2
2017-04-02T07:31:19.530Z,16.12
2017-04-02T07:32:33.452Z,16.23
2017-04-02T07:33:47.399Z,16.17
2017-04-02T07:35:01.361Z,16.14
2017-04-02T07:36:15.316Z,16.12
2017-04-02T07:37:28.123Z,16.25
2017-04-02T07:38:41.472Z,16.17
2017-04-02T07:39:55.392Z,16.25
2017-04-02T07:41:09.318Z,16.25
2017-04-02T07:42:22.699Z,16.21
2017-04-02T07:43:36.072Z,16.15
2017-04-02T07:44:50.156Z,16.27
2017-04-02T07:46:04.109Z,16.21
2017-04-02T07:47:17.480Z,16.2
2017-04-02T07:48:31.390Z,16.15
2017-04-02T07:49:45.296Z,16.15
2017-04-02T07:50:58.686Z,16.17
2017-04-02T07:52:12.063Z,16.27
2017-04-02T07:53:26.002Z,16.31
2017-04-02T07:54:39.943Z,16.34
2017-04-02T07:55:53.876Z,16.25
2017-04-02T07:57:07.238Z,16.15
2017-04-02T07:58:21.190Z,16.09
2017-04-02T07:59:35.149Z,16.05
2017-04-02T08:00:48.529Z,16.01
2017-04-02T08:02:02.479Z,16.02
2017-04-02T08:03:16.397Z,16.07
2017-04-02T08:04:29.794Z,16.07
2017-04-02T08:05:43.735Z,16.01
2017-04-02T08:06:57.115Z,16.02
2017-04-02T08:08:10.475Z,16.04
2017-04-02T08:09:24.382Z,15.96
2017-04-02T08:10:38.320Z,15.97
2017-04-02T08:11:52.254Z,15.97
2017-04-02T08:13:06.159Z,15.94
2017-04-02T08:14:20.099Z,15.92
2017-04-02T08:15:34.031Z,15.9
2017-04-02T08:16:47.978Z,15.92
2017-04-02T08:18:01.986Z,15.94
2017-04-02T08:19:16.249Z,15.97
2017-04-02T08:20:30.188Z,15.94
2017-04-02T08:21:44.147Z,15.92
2017-04-02T08:22:58.081Z,15.86
2017-04-02T08:24:11.991Z,16
2017-04-02T08:25:25.964Z,15.97
2017-04-02T08:26:39.913Z,15.97
2017-04-02T08:27:53.828Z,16.04
2017-04-02T08:29:07.256Z,16.02
2017-04-02T08:30:21.176Z,15.96
2017-04-02T08:31:35.111Z,16.01
2017-04-02T08:32:49.100Z,15.93
2017-04-02T08:34:03.024Z,15.96
2017-04-02T08:35:15.860Z,15.89
2017-04-02T08:36:28.687Z,15.86
2017-04-02T08:37:42.625Z,15.89
2017-04-02T08:38:56.001Z,15.87
2017-04-02T08:40:09.389Z,15.89
2017-04-02T08:41:23.322Z,15.89
2017-04-02T08:42:36.703Z,15.86
2017-04-02T08:43:50.662Z,15.86
2017-04-02T08:45:04.599Z,15.89
2017-04-02T08:46:17.974Z,15.87
2017-04-02T08:47:31.900Z,15.86
2017-04-02T08:48:45.813Z,15.86
2017-04-02T08:49:59.740Z,15.84
2017-04-02T08:51:13.691Z,15.84
2017-04-02T08:52:27.610Z,15.87
2017-04-02T08:53:40.958Z,15.82
2017-04-02T08:54:54.874Z,15.89
2017-04-02T08:56:08.296Z,15.83
2017-04-02T08:57:22.240Z,15.84
2017-04-02T08:58:35.055Z,15.76
2017-04-02T08:59:48.967Z,15.78
2017-04-02T09:01:02.881Z,15.83
2017-04-02T09:02:16.274Z,15.83
2017-04-02T09:03:29.685Z,15.84
2017-04-02T09:04:43.606Z,15.96
2017-04-02T09:05:56.434Z,15.94
2017-04-02T09:07:10.399Z,15.93
2017-04-02T09:08:24.369Z,16
2017-04-02T09:09:38.317Z,15.94
2017-04-02T09:10:52.257Z,15.93
2017-04-02T09:12:06.193Z,15.96
2017-04-02T09:13:20.184Z,15.93
2017-04-02T09:14:34.167Z,15.97
2017-04-02T09:15:48.090Z,16
2017-04-02T09:17:02.004Z,16.05
2017-04-02T09:18:15.921Z,16.05
2017-04-02T09:19:29.854Z,16.07
2017-04-02T09:20:43.794Z,16.02
2017-04-02T09:21:57.736Z,16.12
2017-04-02T09:23:11.696Z,16.02
2017-04-02T09:24:25.663Z,16.08
2017-04-02T09:25:39.574Z,16.09
2017-04-02T09:26:53.504Z,16.27
2017-04-02T09:28:07.411Z,16.21
2017-04-02T09:29:20.227Z,16.21
2017-04-02T09:30:34.168Z,16.2
2017-04-02T09:31:47.539Z,16.2
2017-04-02T09:33:00.919Z,16.33
2017-04-02T09:34:14.871Z,16.14
2017-04-02T09:35:28.807Z,16.23
2017-04-02T09:36:42.774Z,16.25
2017-04-02T09:37:56.714Z,16.17
2017-04-02T09:39:10.645Z,16.14
2017-04-02T09:40:24.576Z,16.12
2017-04-02T09:41:38.484Z,16.15
2017-04-02T09:42:52.417Z,16.12
2017-04-02T09:44:06.348Z,16.27
2017-04-02T09:45:20.300Z,16.24
2017-04-02T09:46:34.214Z,16.28
2017-04-02T09:47:48.173Z,16.23
2017-04-02T09:49:02.110Z,16.21
2017-04-02T09:50:16.024Z,16.3
2017-04-02T09:51:29.400Z,16.39
2017-04-02T09:52:42.822Z,16.41
2017-04-02T09:53:56.373Z,16.43
2017-04-02T09:55:09.965Z,16.5
2017-04-02T09:56:23.324Z,16.57
2017-04-02T09:57:37.258Z,16.6
2017-04-02T09:58:50.055Z,16.66
2017-04-02T10:00:03.969Z,16.71
2017-04-02T10:01:17.918Z,16.73
2017-04-02T10:02:31.299Z,16.71
2017-04-02T10:03:44.682Z,16.67
2017-04-02T10:04:58.641Z,16.71
2017-04-02T10:06:12.015Z,16.81
2017-04-02T10:07:25.400Z,16.75
2017-04-02T10:08:38.778Z,16.86
2017-04-02T10:09:52.147Z,16.86
2017-04-02T10:11:06.105Z,16.89
2017-04-02T10:12:18.925Z,16.97
2017-04-02T10:13:32.279Z,17.14
2017-04-02T10:14:46.225Z,17.16
2017-04-02T10:16:00.153Z,17.19
2017-04-02T10:17:14.080Z,17.34
2017-04-02T10:18:28.024Z,17.36
2017-04-02T10:19:41.417Z,17.36
2017-04-02T10:20:55.315Z,17.31
2017-04-02T10:22:08.675Z,17.37
2017-04-02T10:23:22.098Z,17.4
2017-04-02T10:24:36.029Z,17.55
2017-04-02T10:25:49.397Z,17.51
2017-04-02T10:27:03.309Z,17.54
2017-04-02T10:28:17.258Z,17.46
2017-04-02T10:29:30.618Z,17.46
2017-04-02T10:30:43.979Z,17.59
2017-04-02T10:31:57.327Z,17.72
2017-04-02T10:33:11.271Z,17.79
2017-04-02T10:34:25.211Z,17.78
2017-04-02T10:35:39.164Z,17.7
2017-04-02T10:36:52.564Z,17.66
2017-04-02T10:38:06.516Z,17.64
2017-04-02T10:39:20.530Z,17.52
2017-04-02T10:40:33.900Z,17.56
2017-04-02T10:41:47.823Z,17.56
2017-04-02T10:43:01.203Z,17.54
2017-04-02T10:44:14.616Z,17.63
2017-04-02T10:45:27.992Z,17.68
2017-04-02T10:46:41.927Z,17.78
2017-04-02T10:47:55.890Z,17.9
2017-04-02T10:49:09.846Z,17.96
2017-04-02T10:50:23.231Z,18.03
2017-04-02T10:51:35.486Z,18.14
2017-04-02T10:52:48.879Z,18.05
2017-04-02T10:54:02.794Z,18.05
2017-04-02T10:55:16.137Z,18.08
2017-04-02T10:56:30.056Z,18.11
2017-04-02T10:57:44.043Z,17.92
2017-04-02T10:58:57.987Z,17.96
2017-04-02T11:00:11.927Z,17.87
2017-04-02T11:01:25.909Z,17.79
2017-04-02T11:02:39.868Z,17.68
2017-04-02T11:03:53.823Z,17.59
2017-04-02T11:05:07.799Z,17.52
2017-04-02T11:06:21.743Z,17.59
2017-04-02T11:07:35.114Z,17.63
2017-04-02T11:08:49.025Z,17.71
2017-04-02T11:10:02.961Z,17.84
2017-04-02T11:11:16.395Z,17.78
2017-04-02T11:12:29.751Z,17.92
2017-04-02T11:13:43.679Z,18.02
2017-04-02T11:14:57.073Z,18.08
2017-04-02T11:16:10.458Z,18.21
2017-04-02T11:17:23.277Z,18.2
2017-04-02T11:18:36.103Z,18.23
2017-04-02T11:19:49.450Z,18.21
2017-04-02T11:21:03.392Z,18.21
2017-04-02T11:22:17.313Z,18.36
2017-04-02T11:23:31.233Z,18.37
2017-04-02T11:24:44.623Z,18.36
2017-04-02T11:25:58.003Z,18.39
2017-04-02T11:27:11.942Z,18.44
2017-04-02T11:28:25.899Z,18.29
2017-04-02T11:29:39.288Z,18.35
2017-04-02T11:30:53.235Z,18.35
2017-04-02T11:32:06.642Z,18.35
2017-04-02T11:33:20.564Z,18.32
2017-04-02T11:34:33.924Z,18.33
2017-04-02T11:35:47.309Z,18.33
2017-04-02T11:37:00.710Z,18.26
2017-04-02T11:38:14.672Z,18.35
2017-04-02T11:39:28.054Z,18.37
2017-04-02T11:40:41.971Z,18.45
2017-04-02T11:41:55.347Z,18.58
2017-04-02T11:43:09.263Z,18.58
2017-04-02T11:44:23.169Z,18.67
2017-04-02T11:45:37.104Z,18.82
2017-04-02T11:46:51.027Z,18.88
2017-04-02T11:48:04.958Z,19.06
2017-04-02T11:49:18.319Z,19.22
2017-04-02T11:50:32.251Z,19.29
2017-04-02T11:51:46.201Z,19.37
2017-04-02T11:53:00.157Z,19.29
2017-04-02T11:54:13.580Z,19.44
2017-04-02T11:55:27.507Z,19.39
2017-04-02T11:56:41.481Z,19.41
2017-04-02T11:57:55.413Z,19.36
2017-04-02T11:59:09.338Z,19.21
2017-04-02T12:00:22.720Z,19.11
2017-04-02T12:01:36.657Z,19.06
2017-04-02T12:02:50.581Z,19.06
2017-04-02T12:04:04.566Z,19.11
2017-04-02T12:05:18.488Z,19.22
2017-04-02T12:06:31.881Z,19.31
2017-04-02T12:07:45.225Z,19.26
2017-04-02T12:08:59.143Z,19.54
2017-04-02T12:10:12.512Z,19.58
2017-04-02T12:11:26.429Z,19.69
2017-04-02T12:12:39.797Z,19.77
2017-04-02T12:13:53.711Z,19.76
2017-04-02T12:15:07.635Z,19.91
2017-04-02T12:16:21.571Z,19.86
2017-04-02T12:17:34.958Z,19.8
2017-04-02T12:18:48.627Z,19.71
2017-04-02T12:20:01.853Z,19.88
2017-04-02T12:21:15.060Z,20.11
2017-04-02T12:22:28.339Z,20.29
2017-04-02T12:23:41.598Z,20.29
2017-04-02T12:24:54.872Z,20.47
2017-04-02T12:26:08.163Z,20.41
2017-04-02T12:27:20.881Z,20.43
2017-04-02T12:28:34.085Z,20.38
2017-04-02T12:29:46.813Z,20.21
2017-04-02T12:31:00.039Z,20.1
2017-04-02T12:32:12.792Z,20.08
2017-04-02T12:33:26.060Z,20.16
2017-04-02T12:34:38.793Z,20.28
2017-04-02T12:35:52.087Z,20.5
2017-04-02T12:37:05.335Z,20.55
2017-04-02T12:38:18.607Z,20.64
2017-04-02T12:39:31.843Z,20.64
2017-04-02T12:40:45.099Z,20.74
2017-04-02T12:41:58.364Z,20.7
2017-04-02T12:43:11.102Z,20.59
2017-04-02T12:44:24.344Z,20.58
2017-04-02T12:45:37.077Z,20.67
2017-04-02T12:46:49.828Z,20.95
2017-04-02T12:48:03.045Z,21.04
2017-04-02T12:49:16.298Z,20.98
2017-04-02T12:50:28.997Z,20.92
2017-04-02T12:51:42.289Z,20.84
2017-04-02T12:52:55.543Z,20.8
2017-04-02T12:54:08.750Z,20.59
2017-04-02T12:55:21.977Z,20.52
2017-04-02T12:56:34.695Z,20.47
2017-04-02T12:57:47.979Z,20.47
2017-04-02T12:59:01.224Z,20.55
2017-04-02T13:00:14.498Z,20.5
2017-04-02T13:01:27.707Z,20.76
2017-04-02T13:02:40.441Z,21.01
2017-04-02T13:03:53.657Z,21.09
2017-04-02T13:05:06.890Z,21.34
2017-04-02T13:06:19.633Z,21.34
2017-04-02T13:07:32.898Z,21.44
2017-04-02T13:08:46.123Z,21.31
2017-04-02T13:09:59.362Z,21.24
2017-04-02T13:11:12.647Z,21.12
2017-04-02T13:12:25.937Z,21.07
2017-04-02T13:13:39.172Z,20.91
2017-04-02T13:14:51.957Z,21.03
2017-04-02T13:16:05.193Z,21.25
2017-04-02T13:17:18.429Z,21.35
2017-04-02T13:18:31.694Z,21.5
2017-04-02T13:19:44.928Z,21.42
2017-04-02T13:20:58.175Z,21.72
2017-04-02T13:22:10.918Z,21.88
2017-04-02T13:23:24.174Z,22.07
2017-04-02T13:24:36.917Z,22.09
2017-04-02T13:25:50.180Z,21.92
2017-04-02T13:27:03.420Z,22.25
2017-04-02T13:28:16.174Z,22.54
2017-04-02T13:29:29.424Z,22.75
2017-04-02T13:30:42.660Z,22.95
2017-04-02T13:31:55.418Z,23.36
2017-04-02T13:33:08.180Z,23.46
2017-04-02T13:34:20.407Z,23.23
2017-04-02T13:35:33.691Z,22.97
2017-04-02T13:36:45.921Z,22.65
2017-04-02T13:37:59.188Z,22.8
2017-04-02T13:39:12.432Z,22.76
2017-04-02T13:40:25.179Z,23.09
2017-04-02T13:41:38.410Z,23.33
2017-04-02T13:42:51.667Z,23.75
2017-04-02T13:44:04.914Z,23.65
2017-04-02T13:45:17.645Z,23.57
2017-04-02T13:46:30.878Z,22.98
2017-04-02T13:47:44.177Z,23.09
2017-04-02T13:48:57.422Z,23.38
2017-04-02T13:50:10.161Z,23.33
2017-04-02T13:51:23.440Z,23.28
2017-04-02T13:52:36.744Z,23.2
2017-04-02T13:53:50.029Z,22.97
2017-04-02T13:55:03.291Z,22.72
2017-04-02T13:56:15.521Z,22.52
2017-04-02T13:57:28.264Z,22.79
2017-04-02T13:58:40.462Z,22.97
2017-04-02T13:59:53.707Z,23.27
2017-04-02T14:01:06.949Z,23.33
2017-04-02T14:02:19.671Z,23.38
2017-04-02T14:03:32.883Z,23.4
2017-04-02T14:04:45.139Z,23.54
2017-04-02T14:05:58.422Z,23.46
2017-04-02T14:07:11.644Z,23.55
2017-04-02T14:08:24.870Z,23.68
2017-04-02T14:09:38.150Z,23.97
2017-04-02T14:10:51.418Z,24.39
2017-04-02T14:12:04.681Z,24.5
2017-04-02T14:13:17.936Z,24.18
2017-04-02T14:14:31.259Z,24.03
2017-04-02T14:15:43.982Z,23.7
2017-04-02T14:16:57.249Z,23.53
2017-04-02T14:18:10.027Z,23.31
2017-04-02T14:19:22.794Z,23.07
2017-04-02T14:20:35.044Z,23.04
2017-04-02T14:21:47.803Z,23.04
2017-04-02T14:23:00.555Z,23.04
2017-04-02T14:24:13.816Z,23.23
2017-04-02T14:25:27.077Z,23.05
2017-04-02T14:26:39.789Z,22.97
2017-04-02T14:27:53.025Z,23.25
2017-04-02T14:29:06.274Z,23.42
2017-04-02T14:30:19.131Z,23.54
2017-04-02T14:31:32.359Z,23.46
2017-04-02T14:32:45.068Z,23
2017-04-02T14:33:57.782Z,22.7
2017-04-02T14:35:11.085Z,22.42
2017-04-02T14:36:23.873Z,22.2
2017-04-02T14:37:37.139Z,22.24
2017-04-02T14:38:49.360Z,22.4
2017-04-02T14:40:02.576Z,22.54
2017-04-02T14:41:15.846Z,22.72
2017-04-02T14:42:29.114Z,23.36
2017-04-02T14:43:42.374Z,23.94
2017-04-02T14:44:55.626Z,24.3
2017-04-02T14:46:08.347Z,24.96
2017-04-02T14:47:21.621Z,25.32
2017-04-02T14:48:34.877Z,25.13
2017-04-02T14:49:48.148Z,25.2
2017-04-02T14:51:01.393Z,25.17
2017-04-02T14:52:14.655Z,25.39
2017-04-02T14:53:27.410Z,25.35
2017-04-02T14:54:40.165Z,25.39
2017-04-02T14:55:52.924Z,25.33
2017-04-02T14:57:06.185Z,25.25
2017-04-02T14:58:18.937Z,25.15
2017-04-02T14:59:32.210Z,25.05
2017-04-02T15:00:44.937Z,24.93
2017-04-02T15:01:58.189Z,24.91
2017-04-02T15:03:11.457Z,25.02
2017-04-02T15:04:24.714Z,24.64
2017-04-02T15:05:37.989Z,24.61
2017-04-02T15:06:51.260Z,24.53
2017-04-02T15:08:04.573Z,24.55
2017-04-02T15:09:17.311Z,24.6
2017-04-02T15:10:30.571Z,24.77
2017-04-02T15:11:43.842Z,24.55
2017-04-02T15:12:56.562Z,24.37
2017-04-02T15:14:09.853Z,24
2017-04-02T15:15:23.163Z,24.12
2017-04-02T15:16:36.423Z,24.21
2017-04-02T15:17:49.706Z,24.45
2017-04-02T15:19:02.970Z,24.61
2017-04-02T15:20:15.706Z,24.9
2017-04-02T15:21:28.438Z,25.08
2017-04-02T15:22:41.764Z,24.83
2017-04-02T15:23:54.989Z,24.46
2017-04-02T15:25:08.277Z,23.95
2017-04-02T15:26:21.540Z,23.95
2017-04-02T15:27:34.335Z,24.28
2017-04-02T15:28:47.556Z,24.46
2017-04-02T15:30:00.813Z,24.65
2017-04-02T15:31:13.549Z,25.27
2017-04-02T15:32:26.791Z,25.6
2017-04-02T15:33:40.021Z,25.67
2017-04-02T15:34:52.767Z,25.52
2017-04-02T15:36:06.047Z,25.36
2017-04-02T15:37:18.763Z,25.43
2017-04-02T15:38:32.053Z,25.8
2017-04-02T15:39:45.329Z,26.09
2017-04-02T15:40:58.109Z,26.13
2017-04-02T15:42:11.397Z,26.26
2017-04-02T15:43:24.160Z,26.6
2017-04-02T15:44:37.431Z,26.72
2017-04-02T15:45:50.173Z,27.07
2017-04-02T15:47:03.453Z,27.12
2017-04-02T15:48:16.747Z,26.95